Kvitbjoern — LM9158 — position and weather

sailwx.info

Track history (hours):
 
Tides and Currents Weather Stations Pressure Air Temp Water Temp Dewpoint Dewpoint Depression Visibility Wind Speed Wind Dir Waves Ship Positions

Kvitbjoern

Last reported at 2017-Aug-19 16:45 UTC. Time now 2017-Aug-20 08:05 UTC.
Position N 66°22' E 012°21'.

Length 10 m.

Type: Fishing. MMSI: 257454420.

Date/timePositionNaut miles runAvg speedWind from/ knotsBaromVisibWave heightAir tempDewpointWater temp
2017-Aug-19 16:45N 66°22' E 012°21'0 0.0
2017-Aug-19 16:30N 66°22' E 012°21'2 3.4
2017-Aug-19 16:00N 66°23' E 012°26'0 0.4
2017-Aug-19 15:29N 66°23' E 012°26'1 1.8
2017-Aug-19 15:00N 66°23' E 012°24'1 0.7
2017-Aug-19 14:00N 66°22' E 012°24'1 1.4
2017-Aug-19 13:29N 66°21' E 012°24'0 0.7
2017-Aug-19 13:00N 66°21' E 012°24'1 1.4
2017-Aug-19 12:31N 66°20' E 012°23'1 1.2
2017-Aug-19 11:58N 66°20' E 012°23'0 0.4
2017-Aug-19 11:25N 66°20' E 012°22'0 0.4
2017-Aug-19 10:59N 66°19' E 012°22'2 4.2
2017-Aug-19 10:30N 66°21' E 012°23'1 0.1
2017-Aug-18 15:47N 66°22' E 012°21'0 0.0
2017-Aug-18 15:29N 66°22' E 012°21'1 2.8
2017-Aug-18 15:00N 66°21' E 012°24'1 2.6
2017-Aug-18 14:29N 66°20' E 012°23'1 1.2
2017-Aug-18 13:30N 66°20' E 012°26'0 0.9
2017-Aug-18 13:00N 66°20' E 012°27'0 0.5
2017-Aug-18 12:30N 66°21' E 012°27'0 0.5
2017-Aug-18 11:58N 66°21' E 012°27'2 4.3
2017-Aug-18 11:30N 66°21' E 012°22'0 0.4
2017-Aug-18 10:57N 66°21' E 012°23'0 0.6
2017-Aug-18 10:27N 66°21' E 012°23'2 3.9
2017-Aug-18 10:00N 66°22' E 012°22'0 0.7
2017-Aug-18 09:29N 66°22' E 012°21'0 0.0
2017-Aug-17 16:39N 66°22' E 012°21'0 0.0
2017-Aug-17 16:30N 66°22' E 012°21'2 5.0
2017-Aug-17 16:00N 66°22' E 012°27'2 2.9
2017-Aug-17 15:28N 66°20' E 012°27'1 1.6
2017-Aug-17 15:00N 66°21' E 012°25'1 1.6
2017-Aug-17 14:28N 66°21' E 012°23'1 2.9
2017-Aug-17 14:00N 66°22' E 012°23'1 1.5
2017-Aug-17 13:30N 66°22' E 012°21'0 0.0
2017-Aug-17 13:00N 66°22' E 012°21'0 0.0
2017-Aug-17 12:30N 66°22' E 012°21'0 0.0
2017-Aug-17 12:00N 66°22' E 012°21'0 0.0
2017-Aug-17 11:30N 66°22' E 012°21'0 0.0
2017-Aug-17 11:00N 66°22' E 012°21'0 0.0
2017-Aug-17 10:30N 66°22' E 012°21'0 0.0
2017-Aug-17 10:00N 66°22' E 012°21'0 0.0
2017-Aug-15 17:54N 66°22' E 012°21'1 2.8
2017-Aug-15 17:30N 66°23' E 012°23'1 1.1
2017-Aug-15 16:58N 66°23' E 012°25'0 0.2
2017-Aug-15 16:29N 66°23' E 012°25'1 1.1
2017-Aug-15 15:59N 66°23' E 012°26'0 0.5
2017-Aug-15 15:26N 66°24' E 012°26'0 0.3
2017-Aug-15 15:00N 66°23' E 012°26'2 3.9
2017-Aug-15 14:30N 66°22' E 012°22'0 0.3
2017-Aug-15 14:00N 66°22' E 012°21'0 0.0
2017-Aug-15 13:27N 66°22' E 012°21'0 0.0
2017-Aug-15 13:00N 66°22' E 012°21'  
2017-Aug-12 16:13N 66°22' E 012°21'0 0.0
2017-Aug-12 15:58N 66°22' E 012°21'0 0.0
2017-Aug-12 15:28N 66°22' E 012°21'0 0.0
2017-Aug-12 14:58N 66°22' E 012°21'0 0.0
2017-Aug-12 14:28N 66°22' E 012°21'0 0.0
2017-Aug-12 13:58N 66°22' E 012°21'0 0.0
2017-Aug-12 13:28N 66°22' E 012°21'0 0.0
2017-Aug-12 12:58N 66°22' E 012°21'0 0.0
2017-Aug-12 12:28N 66°22' E 012°21'0 0.0
2017-Aug-11 07:09N 66°22' E 012°21'0 0.0
2017-Aug-11 07:00N 66°22' E 012°21'0 0.0
2017-Aug-11 06:30N 66°22' E 012°21'  
Track history (hours):
 
Tides and Currents Weather Stations Pressure Air Temp Water Temp Dewpoint Dewpoint Depression Visibility Wind Speed Wind Dir Waves Ship Positions

Kvitbjoern

Last reported at 2017-Aug-19 16:45 UTC. Time now 2017-Aug-20 08:05 UTC.
Position N 66°22' E 012°21'.

Length 10 m.

Type: Fishing. MMSI: 257454420.

Date/timePositionNaut miles runAvg speedWind from/ knotsBaromVisibWave heightAir tempDewpointWater temp
2017-Aug-19 16:45N 66°22' E 012°21'0 0.0
2017-Aug-19 16:30N 66°22' E 012°21'2 3.4
2017-Aug-19 16:00N 66°23' E 012°26'0 0.4
2017-Aug-19 15:29N 66°23' E 012°26'1 1.8
2017-Aug-19 15:00N 66°23' E 012°24'1 0.7
2017-Aug-19 14:00N 66°22' E 012°24'1 1.4
2017-Aug-19 13:29N 66°21' E 012°24'0 0.7
2017-Aug-19 13:00N 66°21' E 012°24'1 1.4
2017-Aug-19 12:31N 66°20' E 012°23'1 1.2
2017-Aug-19 11:58N 66°20' E 012°23'0 0.4
2017-Aug-19 11:25N 66°20' E 012°22'0 0.4
2017-Aug-19 10:59N 66°19' E 012°22'2 4.2
2017-Aug-19 10:30N 66°21' E 012°23'1 0.1
2017-Aug-18 15:47N 66°22' E 012°21'0 0.0
2017-Aug-18 15:29N 66°22' E 012°21'1 2.8
2017-Aug-18 15:00N 66°21' E 012°24'1 2.6
2017-Aug-18 14:29N 66°20' E 012°23'1 1.2
2017-Aug-18 13:30N 66°20' E 012°26'0 0.9
2017-Aug-18 13:00N 66°20' E 012°27'0 0.5
2017-Aug-18 12:30N 66°21' E 012°27'0 0.5
2017-Aug-18 11:58N 66°21' E 012°27'2 4.3
2017-Aug-18 11:30N 66°21' E 012°22'0 0.4
2017-Aug-18 10:57N 66°21' E 012°23'0 0.6
2017-Aug-18 10:27N 66°21' E 012°23'2 3.9
2017-Aug-18 10:00N 66°22' E 012°22'0 0.7
2017-Aug-18 09:29N 66°22' E 012°21'0 0.0
2017-Aug-17 16:39N 66°22' E 012°21'0 0.0
2017-Aug-17 16:30N 66°22' E 012°21'2 5.0
2017-Aug-17 16:00N 66°22' E 012°27'2 2.9
2017-Aug-17 15:28N 66°20' E 012°27'1 1.6
2017-Aug-17 15:00N 66°21' E 012°25'1 1.6
2017-Aug-17 14:28N 66°21' E 012°23'1 2.9
2017-Aug-17 14:00N 66°22' E 012°23'1 1.5
2017-Aug-17 13:30N 66°22' E 012°21'0 0.0
2017-Aug-17 13:00N 66°22' E 012°21'0 0.0
2017-Aug-17 12:30N 66°22' E 012°21'0 0.0
2017-Aug-17 12:00N 66°22' E 012°21'0 0.0
2017-Aug-17 11:30N 66°22' E 012°21'0 0.0
2017-Aug-17 11:00N 66°22' E 012°21'0 0.0
2017-Aug-17 10:30N 66°22' E 012°21'0 0.0
2017-Aug-17 10:00N 66°22' E 012°21'0 0.0
2017-Aug-15 17:54N 66°22' E 012°21'1 2.8
2017-Aug-15 17:30N 66°23' E 012°23'1 1.1
2017-Aug-15 16:58N 66°23' E 012°25'0 0.2
2017-Aug-15 16:29N 66°23' E 012°25'1 1.1
2017-Aug-15 15:59N 66°23' E 012°26'0 0.5
2017-Aug-15 15:26N 66°24' E 012°26'0 0.3
2017-Aug-15 15:00N 66°23' E 012°26'2 3.9
2017-Aug-15 14:30N 66°22' E 012°22'0 0.3
2017-Aug-15 14:00N 66°22' E 012°21'0 0.0
2017-Aug-15 13:27N 66°22' E 012°21'0 0.0
2017-Aug-15 13:00N 66°22' E 012°21'  
2017-Aug-12 16:13N 66°22' E 012°21'0 0.0
2017-Aug-12 15:58N 66°22' E 012°21'0 0.0
2017-Aug-12 15:28N 66°22' E 012°21'0 0.0
2017-Aug-12 14:58N 66°22' E 012°21'0 0.0
2017-Aug-12 14:28N 66°22' E 012°21'0 0.0
2017-Aug-12 13:58N 66°22' E 012°21'0 0.0
2017-Aug-12 13:28N 66°22' E 012°21'0 0.0
2017-Aug-12 12:58N 66°22' E 012°21'0 0.0
2017-Aug-12 12:28N 66°22' E 012°21'0 0.0
2017-Aug-11 07:09N 66°22' E 012°21'0 0.0
2017-Aug-11 07:00N 66°22' E 012°21'0 0.0
2017-Aug-11 06:30N 66°22' E 012°21'  

Dump ship's entire track history